Time;durP1;ratioP1;P1;durP2;ratioP2;P2;SDS_P1;SDS_P2;PMS_P1;PMS_P2;Temp;Humidity;BMP_temperature;BMP_pressure;BME280_temperature;BME280_humidity;BME280_pressure;Samples;Min_cycle;Max_cycle;Signal;HPM_P1;HPM_P2
2021/04/02 00:01:58;;;;;;;28.60;15.18;;;;;;;9.82;44.83;94543.25;2992061;39;20072;-84
2021/04/02 00:03:59;;;;;;;23.38;14.18;;;;;;;9.84;44.71;94547.34;2991187;39;20079;-84
2021/04/02 00:06:05;;;;;;;28.13;15.07;;;;;;;9.84;45.24;94541.31;2984684;39;20067;-83
2021/04/02 00:08:07;;;;;;;25.35;15.15;;;;;;;9.80;44.74;94532.94;2985784;39;20354;-84
2021/04/02 00:10:30;;;;;;;26.20;14.65;;;;;;;9.80;44.74;94532.13;2990249;39;20067;-85
2021/04/02 00:12:32;;;;;;;25.88;14.90;;;;;;;9.83;44.35;94527.41;2985781;39;20462;-73
2021/04/02 00:14:33;;;;;;;25.88;15.20;;;;;;;9.83;44.29;94526.59;2989399;39;20091;-72
2021/04/02 00:16:34;;;;;;;29.98;14.88;;;;;;;9.82;44.49;94525.75;2979725;39;20344;-74
2021/04/02 00:18:36;;;;;;;26.50;14.35;;;;;;;9.82;44.36;94525.75;2983888;39;20181;-72
2021/04/02 00:20:37;;;;;;;22.85;13.85;;;;;;;9.81;44.40;94524.13;2989627;39;20445;-72
2021/04/02 00:22:39;;;;;;;28.45;16.70;;;;;;;9.77;44.84;94520.19;2988195;39;20115;-71
2021/04/02 00:24:40;;;;;;;33.60;16.80;;;;;;;9.69;44.87;94527.19;2987608;39;20067;-71
2021/04/02 00:26:42;;;;;;;26.70;16.50;;;;;;;9.20;44.45;94525.97;2988392;39;20379;-70
2021/04/02 00:28:45;;;;;;;27.35;16.63;;;;;;;8.76;46.37;94514.75;2982952;39;20072;-71
2021/04/02 00:30:48;;;;;;;31.13;17.70;;;;;;;8.67;46.41;94523.47;2979669;39;20064;-72
2021/04/02 00:32:49;;;;;;;28.55;16.45;;;;;;;8.79;46.76;94514.44;2989516;39;20485;-72
2021/04/02 00:34:51;;;;;;;27.75;15.65;;;;;;;8.73;46.70;94513.28;2990116;39;20075;-72
2021/04/02 00:36:52;;;;;;;30.60;16.02;;;;;;;8.63;47.55;94514.34;2988494;39;20296;-71
2021/04/02 00:38:53;;;;;;;29.80;14.98;;;;;;;8.45;48.53;94516.94;2983089;39;20083;-72
2021/04/02 00:40:56;;;;;;;20.58;14.63;;;;;;;8.52;47.88;94505.75;2988464;39;20435;-71
2021/04/02 00:42:58;;;;;;;30.13;15.60;;;;;;;8.65;48.31;94507.13;2990021;39;20176;-71
2021/04/02 00:44:59;;;;;;;30.80;16.48;;;;;;;8.71;48.48;94512.59;2991887;39;20442;-84
2021/04/02 00:47:00;;;;;;;22.02;14.65;;;;;;;8.75;48.39;94511.31;2988618;39;20068;-82
2021/04/02 00:49:01;;;;;;;22.48;13.60;;;;;;;8.44;49.57;94512.72;2990502;39;20083;-85
2021/04/02 00:51:05;;;;;;;22.30;13.77;;;;;;;8.00;50.47;94506.41;2995643;39;20367;-86
2021/04/02 00:53:07;;;;;;;;;;;;;;;7.92;51.23;94510.72;2989236;39;20142;-84
2021/04/02 00:55:09;;;;;;;22.88;14.10;;;;;;;7.64;52.14;94502.94;2992563;39;20380;-85
2021/04/02 00:57:10;;;;;;;22.75;13.90;;;;;;;7.45;52.60;94495.22;2991522;39;20140;-84
2021/04/02 00:59:12;;;;;;;20.42;13.60;;;;;;;7.44;53.28;94496.16;2990714;39;20086;-84
2021/04/02 01:01:14;;;;;;;27.80;13.85;;;;;;;7.60;52.83;94498.97;2991497;39;20109;-84
2021/04/02 01:03:16;;;;;;;20.38;13.25;;;;;;;7.62;52.82;94497.03;2987512;39;20172;-84
2021/04/02 01:05:20;;;;;;;22.30;13.38;;;;;;;7.76;52.28;94496.53;2993706;39;20060;-83
2021/04/02 01:07:21;;;;;;;22.25;13.57;;;;;;;7.71;52.60;94496.16;2985591;39;20088;-85
2021/04/02 01:09:22;;;;;;;27.70;13.63;;;;;;;7.79;52.43;94492.81;2995789;39;20058;-82
2021/04/02 01:11:25;;;;;;;22.05;13.00;;;;;;;7.79;52.56;94492.81;2991744;39;20149;-86
2021/04/02 01:13:38;;;;;;;24.33;14.13;;;;;;;7.87;52.00;94487.69;2986342;39;20622;-84
2021/04/02 01:15:42;;;;;;;22.17;12.93;;;;;;;7.83;51.94;94490.72;2982736;39;20067;-85
2021/04/02 01:17:46;;;;;;;20.20;12.45;;;;;;;7.75;51.65;94486.25;2992848;39;20482;-86
2021/04/02 01:19:53;;;;;;;20.10;12.38;;;;;;;7.58;51.47;94480.84;2990536;39;20067;-85
2021/04/02 01:21:57;;;;;;;19.45;12.25;;;;;;;7.68;51.07;94475.59;2990339;39;20064;-85
2021/04/02 01:24:04;;;;;;;20.73;12.82;;;;;;;7.83;51.05;94465.50;2984631;39;20064;-84
2021/04/02 01:26:19;;;;;;;18.73;12.50;;;;;;;8.02;50.66;94469.72;2994425;39;20078;-84
2021/04/02 01:28:28;;;;;;;22.40;13.32;;;;;;;8.18;50.36;94464.66;2991352;39;20142;-85
2021/04/02 01:30:30;;;;;;;18.23;12.60;;;;;;;8.28;50.40;94461.13;2991475;39;20071;-84
2021/04/02 01:32:42;;;;;;;24.33;13.63;;;;;;;8.36;50.20;94456.00;2990842;39;20301;-86
2021/04/02 01:34:46;;;;;;;22.00;12.82;;;;;;;8.43;49.85;94456.22;2983754;39;20101;-83
2021/04/02 01:36:49;;;;;;;20.67;13.25;;;;;;;8.46;50.24;94458.56;2984866;39;20070;-85
2021/04/02 01:38:51;;;;;;;22.43;13.50;;;;;;;8.52;50.44;94456.16;2990683;39;20155;-84
2021/04/02 01:40:55;;;;;;;21.42;14.18;;;;;;;8.55;49.79;94455.84;2980050;39;20079;-85
2021/04/02 01:43:00;;;;;;;19.80;13.55;;;;;;;8.47;49.12;94450.56;2991288;39;20063;-84
2021/04/02 01:45:04;;;;;;;23.42;13.32;;;;;;;8.01;50.28;94449.84;2990301;39;20060;-84
2021/04/02 01:47:07;;;;;;;25.70;15.38;;;;;;;7.49;52.43;94457.47;2983966;39;20066;-84
2021/04/02 01:49:10;;;;;;;32.13;19.30;;;;;;;7.11;53.14;94459.28;2981385;39;20072;-85
2021/04/02 01:51:13;;;;;;;30.88;18.20;;;;;;;6.70;54.27;94463.97;2986845;39;20544;-84
2021/04/02 01:53:15;;;;;;;32.50;19.73;;;;;;;6.44;54.83;94459.34;2989510;39;20068;-85
2021/04/02 01:55:17;;;;;;;34.17;19.52;;;;;;;6.33;55.30;94455.13;2997299;39;20076;-84
2021/04/02 01:57:18;;;;;;;34.15;19.55;;;;;;;6.22;55.76;94462.28;2993631;39;20083;-85
2021/04/02 01:59:21;;;;;;;31.40;18.42;;;;;;;6.26;55.16;94461.00;2993266;39;20074;-84
2021/04/02 02:01:31;;;;;;;30.77;19.30;;;;;;;6.50;54.54;94458.78;2985319;39;20137;-85
2021/04/02 02:03:33;;;;;;;29.10;18.27;;;;;;;6.72;54.33;94446.41;2985919;39;20079;-84
2021/04/02 02:05:37;;;;;;;33.92;19.70;;;;;;;6.88;53.28;94448.41;2991566;39;20083;-84
2021/04/02 02:07:41;;;;;;;33.42;19.15;;;;;;;7.03;53.24;94446.97;2991446;39;20172;-85
2021/04/02 02:09:44;;;;;;;35.47;18.98;;;;;;;7.15;52.74;94434.59;2991340;39;20411;-84
2021/04/02 02:11:47;;;;;;;30.85;19.85;;;;;;;7.23;52.48;94437.31;2987517;39;20403;-86
2021/04/02 02:13:53;;;;;;;31.20;18.75;;;;;;;7.28;52.38;94435.06;2985874;39;20079;-83
2021/04/02 02:15:55;;;;;;;30.70;19.02;;;;;;;7.34;52.55;94438.91;2984152;39;20161;-85
2021/04/02 02:17:59;;;;;;;35.90;18.77;;;;;;;7.33;51.89;94437.25;2992400;39;20064;-84
2021/04/02 02:20:05;;;;;;;33.38;18.88;;;;;;;7.31;51.92;94434.81;2990911;39;20449;-82
2021/04/02 02:22:08;;;;;;;29.58;17.70;;;;;;;7.33;52.31;94439.84;2986692;39;20474;-83
2021/04/02 02:24:11;;;;;;;31.35;17.15;;;;;;;7.11;52.20;94434.06;2997035;39;20453;-83
2021/04/02 02:26:13;;;;;;;33.10;18.25;;;;;;;7.15;52.38;94435.41;2988243;39;20079;-86
2021/04/02 02:28:15;;;;;;;29.17;17.10;;;;;;;6.93;52.85;94441.00;2988960;39;20499;-85
2021/04/02 02:30:23;;;;;;;29.38;17.35;;;;;;;7.06;52.55;94435.47;2985395;39;20432;-83
2021/04/02 02:32:24;;;;;;;33.03;16.95;;;;;;;7.02;51.90;94436.72;2983897;39;20507;-86
2021/04/02 02:34:26;;;;;;;28.33;16.70;;;;;;;7.00;51.88;94438.66;2985086;39;20073;-83
2021/04/02 02:36:28;;;;;;;29.52;17.33;;;;;;;7.02;51.99;94444.53;2989685;39;20383;-72
2021/04/02 02:38:30;;;;;;;24.30;15.45;;;;;;;6.82;52.00;94438.56;2987811;39;20079;-71
2021/04/02 02:40:34;;;;;;;25.58;15.43;;;;;;;6.83;52.44;94429.81;2986309;39;20064;-73
2021/04/02 02:42:37;;;;;;;34.30;16.27;;;;;;;6.95;52.09;94439.09;2990837;39;20170;-84
2021/04/02 02:44:38;;;;;;;32.30;15.27;;;;;;;7.07;51.66;94427.50;2992934;39;20067;-84
2021/04/02 02:46:39;;;;;;;28.42;14.38;;;;;;;7.22;51.06;94427.84;2991141;39;20063;-84
2021/04/02 02:48:46;;;;;;;24.40;14.80;;;;;;;7.35;51.15;94420.50;2992549;39;20086;-85
2021/04/02 02:50:54;;;;;;;25.08;15.27;;;;;;;7.46;51.29;94427.28;2997968;39;20064;-85
2021/04/02 02:52:56;;;;;;;24.27;14.45;;;;;;;7.61;51.18;94426.78;2994165;39;20084;-86
2021/04/02 02:54:57;;;;;;;30.10;15.30;;;;;;;7.73;51.11;94434.25;2983884;39;20084;-83
2021/04/02 02:57:00;;;;;;;25.27;14.95;;;;;;;7.78;50.22;94426.78;2992705;39;20079;-83
2021/04/02 02:59:02;;;;;;;25.42;15.93;;;;;;;7.73;50.14;94428.22;2991529;39;20427;-84
2021/04/02 03:01:06;;;;;;;31.58;18.48;;;;;;;7.58;50.20;94433.13;2989561;39;20564;-84
2021/04/02 03:03:15;;;;;;;40.25;23.35;;;;;;;7.51;50.06;94440.72;2988854;39;20087;-84
2021/04/02 03:05:20;;;;;;;36.47;23.02;;;;;;;7.32;50.41;94428.59;2991190;39;20151;-84
2021/04/02 03:07:22;;;;;;;27.33;16.45;;;;;;;7.34;50.29;94429.28;2978165;39;20174;-85
2021/04/02 03:09:24;;;;;;;26.02;14.93;;;;;;;7.41;50.45;94433.91;2989384;39;20079;-85
2021/04/02 03:11:26;;;;;;;28.77;15.20;;;;;;;7.15;50.89;94429.38;2987222;39;20088;-83
2021/04/02 03:13:28;;;;;;;33.58;17.33;;;;;;;6.67;52.18;94435.63;2991079;39;20079;-86
2021/04/02 03:15:31;;;;;;;27.27;16.35;;;;;;;6.58;52.75;94437.25;2988947;39;20405;-86
2021/04/02 03:17:34;;;;;;;31.73;15.32;;;;;;;6.64;52.47;94430.69;2987796;39;20079;-72
2021/04/02 03:19:37;;;;;;;25.83;15.90;;;;;;;6.76;52.03;94430.38;2984525;39;20079;-70
2021/04/02 03:21:39;;;;;;;25.67;15.20;;;;;;;6.84;51.89;94434.03;2978882;39;20141;-73
2021/04/02 03:23:42;;;;;;;25.65;15.32;;;;;;;6.92;51.62;94428.94;2986960;39;20508;-72
2021/04/02 03:25:47;;;;;;;30.83;15.60;;;;;;;7.02;51.29;94426.31;2986337;39;20063;-71
2021/04/02 03:27:49;;;;;;;31.30;15.20;;;;;;;6.28;52.97;94426.13;2988795;39;20074;-72
2021/04/02 03:29:50;;;;;;;33.83;16.85;;;;;;;5.88;54.89;94428.84;2986314;39;20059;-72
2021/04/02 03:31:54;;;;;;;28.30;16.63;;;;;;;5.66;55.48;94428.16;2987775;39;20072;-71
2021/04/02 03:33:56;;;;;;;35.50;15.88;;;;;;;5.74;55.51;94423.09;2988045;39;20078;-71
2021/04/02 03:35:59;;;;;;;30.45;16.27;;;;;;;5.84;54.87;94424.88;2987197;39;20063;-71
2021/04/02 03:38:01;;;;;;;;;;;;;;;6.01;54.24;94413.81;2985111;39;20064;-72
2021/04/02 03:40:05;;;;;;;26.58;15.02;;;;;;;6.10;54.41;94418.19;2983614;39;19923;-71
2021/04/02 03:42:07;;;;;;;27.35;15.73;;;;;;;6.23;54.48;94419.69;2989008;39;20063;-71
2021/04/02 03:44:12;;;;;;;26.95;15.55;;;;;;;6.42;53.42;94416.22;2981363;39;20063;-87
2021/04/02 03:46:14;;;;;;;31.77;16.70;;;;;;;6.57;52.91;94410.41;2984333;39;20068;-84
2021/04/02 03:48:17;;;;;;;28.15;15.10;;;;;;;6.76;53.12;94406.13;2978263;39;20060;-85
2021/04/02 03:50:20;;;;;;;62.40;39.60;;;;;;;6.95;52.43;94407.84;2989412;39;20307;-86
2021/04/02 03:52:30;;;;;;;68.82;41.13;;;;;;;7.11;51.94;94399.38;2983206;39;20355;-86
2021/04/02 03:54:32;;;;;;;34.92;20.17;;;;;;;7.25;51.89;94400.66;2983735;39;20571;-85
2021/04/02 03:56:35;;;;;;;28.02;15.40;;;;;;;7.32;51.35;94412.16;2987956;39;20160;-85
2021/04/02 03:58:39;;;;;;;34.05;15.85;;;;;;;7.38;51.06;94396.75;2978476;39;20060;-87
2021/04/02 04:00:46;;;;;;;34.22;15.88;;;;;;;7.45;50.64;94406.59;2990734;39;20141;-85
2021/04/02 04:02:48;;;;;;;33.05;15.93;;;;;;;7.50;50.56;94397.34;2992075;39;20133;-85
2021/04/02 04:04:50;;;;;;;32.45;16.00;;;;;;;7.56;50.70;94407.19;2989525;39;20415;-84
2021/04/02 04:06:52;;;;;;;26.70;16.45;;;;;;;7.47;51.04;94397.66;2988086;39;20385;-86
2021/04/02 04:08:57;;;;;;;32.40;15.77;;;;;;;7.42;50.99;94404.28;2990484;39;20070;-85
2021/04/02 04:11:00;;;;;;;29.42;16.05;;;;;;;7.43;50.88;94408.53;2988894;39;20438;-84
2021/04/02 04:13:02;;;;;;;30.92;15.90;;;;;;;7.44;50.44;94410.16;2975612;39;20139;-85
2021/04/02 04:15:04;;;;;;;29.25;16.35;;;;;;;7.50;50.57;94401.75;2991756;39;20154;-88
2021/04/02 04:17:07;;;;;;;33.13;16.10;;;;;;;7.59;50.57;94406.91;2985696;39;20067;-87
2021/04/02 04:19:10;;;;;;;29.88;16.50;;;;;;;7.64;50.72;94406.47;2987125;39;20467;-84
2021/04/02 04:21:11;;;;;;;28.92;17.20;;;;;;;7.66;50.48;94411.50;2992537;39;20152;-86
2021/04/02 04:23:13;;;;;;;29.02;16.95;;;;;;;7.70;50.19;94411.09;2992177;39;20371;-84
2021/04/02 04:25:16;;;;;;;31.92;18.38;;;;;;;7.72;50.44;94410.91;2991907;39;20067;-85
2021/04/02 04:27:17;;;;;;;36.77;17.27;;;;;;;7.73;50.50;94413.38;2989192;39;20052;-81
2021/04/02 04:29:26;;;;;;;34.00;16.70;;;;;;;7.76;50.24;94413.06;2984068;39;20064;-86
2021/04/02 04:31:29;;;;;;;29.98;17.10;;;;;;;7.79;50.37;94409.38;2988699;39;20083;-86
2021/04/02 04:33:31;;;;;;;33.25;17.92;;;;;;;7.77;50.73;94408.72;2987053;39;20106;-86
2021/04/02 04:35:33;;;;;;;30.05;16.27;;;;;;;7.76;50.55;94405.25;2991512;39;20080;-84
2021/04/02 04:37:34;;;;;;;30.65;17.30;;;;;;;7.79;50.61;94409.38;2985913;39;20404;-86
2021/04/02 04:39:36;;;;;;;37.67;23.55;;;;;;;7.85;51.16;94397.50;2983924;39;20404;-84
2021/04/02 04:41:38;;;;;;;40.05;25.25;;;;;;;7.92;50.82;94404.59;2987924;39;20071;-86
2021/04/02 04:43:40;;;;;;;31.48;18.25;;;;;;;7.98;50.70;94400.59;2992107;39;20164;-87
2021/04/02 04:45:42;;;;;;;34.67;17.67;;;;;;;7.95;50.38;94398.25;2992802;39;20128;-84
2021/04/02 04:47:43;;;;;;;31.60;18.23;;;;;;;7.96;50.50;94397.31;2993166;39;20083;-86
2021/04/02 04:49:44;;;;;;;34.08;18.30;;;;;;;7.97;50.54;94399.75;2982166;39;20064;-85
2021/04/02 04:51:47;;;;;;;37.88;18.42;;;;;;;7.97;50.30;94394.53;2996869;39;20063;-84
2021/04/02 04:53:52;;;;;;;37.60;17.98;;;;;;;7.98;50.71;94400.59;2994672;39;20063;-86
2021/04/02 04:55:54;;;;;;;42.28;18.55;;;;;;;7.85;50.71;94395.75;2985628;39;20060;-84
2021/04/02 04:57:57;;;;;;;37.55;19.65;;;;;;;7.82;51.04;94398.63;2993952;39;20273;-86
2021/04/02 04:59:59;;;;;;;38.35;17.92;;;;;;;7.73;51.00;94396.94;2992712;39;20097;-85
2021/04/02 05:02:02;;;;;;;35.10;18.05;;;;;;;7.08;52.19;94399.69;2987281;39;20408;-86
2021/04/02 05:04:04;;;;;;;35.15;18.60;;;;;;;6.84;53.52;94398.41;2991528;39;20431;-88
2021/04/02 05:06:07;;;;;;;30.42;17.15;;;;;;;6.68;53.37;94411.22;2976554;39;20084;-85
2021/04/02 05:08:12;;;;;;;31.50;17.27;;;;;;;6.87;53.35;94405.13;2985000;39;20064;-85
2021/04/02 05:10:14;;;;;;;36.63;18.08;;;;;;;7.09;52.81;94409.13;2991114;39;20108;-86
2021/04/02 05:12:17;;;;;;;37.13;18.58;;;;;;;7.22;52.44;94409.59;2992955;39;20064;-85
2021/04/02 05:14:19;;;;;;;29.63;18.25;;;;;;;7.31;52.84;94406.13;2986927;39;20353;-87
2021/04/02 05:16:22;;;;;;;32.53;18.85;;;;;;;7.33;52.26;94411.19;2994156;39;20079;-85
2021/04/02 05:18:24;;;;;;;32.80;18.60;;;;;;;7.41;51.88;94416.50;2988149;39;20202;-84
2021/04/02 05:20:40;;;;;;;34.80;18.87;;;;;;;7.55;52.93;94407.34;2990891;39;20156;-85
2021/04/02 05:22:41;;;;;;;45.10;24.92;;;;;;;7.76;53.28;94407.88;2987289;39;20137;-86
2021/04/02 05:24:42;;;;;;;47.15;23.42;;;;;;;7.95;51.63;94406.09;2985875;39;20067;-87
2021/04/02 05:26:44;;;;;;;34.22;21.02;;;;;;;8.08;51.09;94406.50;2993464;39;20091;-86
2021/04/02 05:28:48;;;;;;;40.05;21.05;;;;;;;8.19;50.65;94410.69;2984671;39;20431;-86
2021/04/02 05:30:53;;;;;;;40.10;19.92;;;;;;;8.13;49.92;94409.50;2994533;39;20304;-87
2021/04/02 05:32:54;;;;;;;39.20;21.60;;;;;;;8.05;50.03;94406.81;2992698;39;20412;-85
2021/04/02 05:34:55;;;;;;;40.78;21.45;;;;;;;8.10;50.22;94403.75;2993494;39;20074;-87
2021/04/02 05:36:57;;;;;;;57.45;36.88;;;;;;;8.17;51.08;94410.84;2993192;39;20285;-87
2021/04/02 05:38:58;;;;;;;46.92;24.98;;;;;;;8.31;50.97;94406.06;2993779;39;20175;-87
2021/04/02 05:41:07;;;;;;;36.45;21.08;;;;;;;8.38;49.96;94405.28;2991550;39;20068;-86
2021/04/02 05:43:27;;;;;;;43.63;22.70;;;;;;;8.47;49.86;94410.59;2990854;39;20173;-86
2021/04/02 05:45:29;;;;;;;39.53;20.10;;;;;;;8.56;49.60;94407.03;2974189;39;20087;-72
2021/04/02 05:47:31;;;;;;;36.60;19.88;;;;;;;8.65;49.19;94408.75;2989076;39;20093;-71
2021/04/02 05:49:33;;;;;;;41.88;18.67;;;;;;;8.76;49.22;94411.09;2987743;39;20074;-73
2021/04/02 05:51:35;;;;;;;35.28;18.52;;;;;;;8.83;48.91;94413.91;2989833;39;20067;-73
2021/04/02 05:53:37;;;;;;;39.08;19.45;;;;;;;8.84;48.73;94409.50;2981412;39;20067;-73
2021/04/02 05:55:41;;;;;;;;;;;;;;;8.86;48.70;94407.53;2985883;39;20056;-73
2021/04/02 05:57:44;;;;;;;38.70;19.55;;;;;;;8.98;49.83;94394.06;2983274;39;20036;-74
2021/04/02 05:59:46;;;;;;;39.85;19.00;;;;;;;9.13;49.08;94394.28;2987355;39;20322;-74
2021/04/02 06:01:48;;;;;;;30.10;18.52;;;;;;;9.23;48.28;94397.59;2985540;39;20153;-73
2021/04/02 06:03:49;;;;;;;40.42;18.83;;;;;;;9.35;47.73;94390.25;2985695;39;20064;-70
2021/04/02 06:05:50;;;;;;;34.97;19.45;;;;;;;9.43;46.73;94400.75;2987512;39;20067;-74
2021/04/02 06:07:53;;;;;;;37.40;18.48;;;;;;;9.50;46.92;94398.31;2987749;39;20115;-74
2021/04/02 06:09:54;;;;;;;43.28;20.02;;;;;;;9.47;47.25;94392.59;2987996;39;20068;-72
2021/04/02 06:11:55;;;;;;;31.10;18.73;;;;;;;9.29;47.28;94396.16;2989193;39;20091;-74
2021/04/02 06:13:57;;;;;;;39.20;18.25;;;;;;;9.29;47.53;94397.91;2989368;39;20075;-72
2021/04/02 06:15:58;;;;;;;33.75;19.45;;;;;;;9.23;48.20;94402.00;2989392;39;20512;-71
2021/04/02 06:18:08;;;;;;;33.47;19.20;;;;;;;9.32;47.35;94408.06;2988391;39;20071;-74
2021/04/02 06:20:10;;;;;;;33.03;18.20;;;;;;;9.34;47.29;94404.31;2982333;39;20160;-73
2021/04/02 06:22:13;;;;;;;35.42;19.15;;;;;;;9.42;46.62;94408.75;2987434;39;20060;-73
2021/04/02 06:24:16;;;;;;;35.65;19.95;;;;;;;9.60;47.20;94411.25;2988807;39;20420;-73
2021/04/02 06:26:18;;;;;;;32.92;19.48;;;;;;;9.73;46.56;94414.22;2988706;39;20306;-73
2021/04/02 06:28:24;;;;;;;35.55;19.27;;;;;;;9.87;45.74;94402.28;2987743;39;20470;-73
2021/04/02 06:30:29;;;;;;;32.67;18.63;;;;;;;10.02;45.55;94411.16;2988293;39;20106;-73
2021/04/02 06:32:37;;;;;;;31.02;18.25;;;;;;;10.14;45.44;94409.03;2988900;39;20083;-70
2021/04/02 06:34:46;;;;;;;35.42;18.63;;;;;;;10.25;45.71;94402.66;2984897;39;20060;-73
2021/04/02 06:36:50;;;;;;;31.27;17.45;;;;;;;10.27;45.27;94397.25;2985998;39;20064;-73
2021/04/02 06:39:02;;;;;;;33.50;18.00;;;;;;;10.33;44.75;94399.25;2988805;39;20078;-73
2021/04/02 06:41:04;;;;;;;35.85;18.08;;;;;;;10.34;44.35;94401.69;2976461;39;20651;-72
2021/04/02 06:43:06;;;;;;;28.83;17.30;;;;;;;10.22;44.22;94393.34;2986336;39;20067;-74
2021/04/02 06:45:08;;;;;;;24.60;16.02;;;;;;;9.90;43.63;94404.59;2987975;39;20348;-74
2021/04/02 06:47:09;;;;;;;33.08;17.08;;;;;;;9.53;44.81;94405.00;2988778;39;20425;-72
2021/04/02 06:49:15;;;;;;;29.73;16.38;;;;;;;9.46;45.16;94404.03;2988462;39;20327;-72
2021/04/02 06:51:19;;;;;;;33.72;15.75;;;;;;;9.45;44.90;94402.41;2989172;39;20067;-73
2021/04/02 06:53:20;;;;;;;25.42;14.38;;;;;;;9.45;44.65;94399.78;2982529;39;20084;-74
2021/04/02 06:55:23;;;;;;;22.17;14.80;;;;;;;9.47;44.78;94401.25;2986681;39;20152;-74
2021/04/02 06:57:25;;;;;;;29.15;16.20;;;;;;;9.13;46.00;94402.13;2988190;39;20064;-73
2021/04/02 06:59:27;;;;;;;22.17;14.60;;;;;;;9.12;46.26;94400.50;2987363;39;20068;-73
2021/04/02 07:01:35;;;;;;;33.85;16.10;;;;;;;9.39;45.68;94401.22;2974587;39;20064;-72
2021/04/02 07:03:36;;;;;;;29.73;16.80;;;;;;;9.64;45.23;94396.88;2987503;39;20070;-70
2021/04/02 07:05:38;;;;;;;31.55;15.18;;;;;;;9.87;44.74;94391.03;2987843;39;20532;-74
2021/04/02 07:07:40;;;;;;;23.17;13.68;;;;;;;9.80;43.74;94394.28;2988413;39;20068;-72
2021/04/02 07:09:43;;;;;;;26.67;14.07;;;;;;;9.57;44.39;94391.47;2977628;39;20099;-72
2021/04/02 07:11:46;;;;;;;32.07;14.50;;;;;;;9.48;44.74;94384.56;2982994;39;20067;-74
2021/04/02 07:13:52;;;;;;;25.17;14.07;;;;;;;9.74;44.47;94384.47;2987563;39;20183;-74
2021/04/02 07:15:56;;;;;;;22.92;13.63;;;;;;;10.08;44.06;94383.50;2987803;39;20439;-73
2021/04/02 07:17:57;;;;;;;;;;;;;;;10.17;43.50;94395.59;2988171;39;20164;-73
2021/04/02 07:19:59;;;;;;;22.73;13.43;;;;;;;10.27;43.27;94399.88;2986388;39;19935;-73
2021/04/02 07:22:01;;;;;;;23.15;13.63;;;;;;;10.39;42.73;94402.03;2988839;39;20388;-74
2021/04/02 07:24:02;;;;;;;25.75;14.18;;;;;;;10.62;43.00;94394.28;2989515;39;20070;-73
2021/04/02 07:26:04;;;;;;;25.55;14.88;;;;;;;10.85;42.65;94394.41;2988614;39;20104;-72
2021/04/02 07:28:06;;;;;;;28.58;18.40;;;;;;;11.07;41.63;94385.00;2989202;39;20076;-74
2021/04/02 07:30:10;;;;;;;27.67;14.38;;;;;;;11.35;41.15;94384.56;2989956;39;20411;-73
2021/04/02 07:32:11;;;;;;;26.67;14.63;;;;;;;11.46;40.59;94386.81;2972248;39;20433;-75
2021/04/02 07:34:13;;;;;;;23.35;13.00;;;;;;;11.38;40.88;94378.97;2975764;39;20082;-72
2021/04/02 07:36:17;;;;;;;23.95;13.60;;;;;;;11.58;40.87;94378.53;2990148;39;20082;-72
2021/04/02 07:38:18;;;;;;;29.88;19.52;;;;;;;11.67;41.44;94383.56;2989319;39;20284;-73
2021/04/02 07:40:29;;;;;;;28.50;14.93;;;;;;;11.75;40.12;94382.69;2987826;39;20073;-72
2021/04/02 07:42:31;;;;;;;24.67;15.27;;;;;;;11.79;40.37;94381.38;2989857;39;20068;-74
2021/04/02 07:44:37;;;;;;;33.20;14.48;;;;;;;11.71;40.21;94385.84;2978678;39;20160;-72
2021/04/02 07:46:38;;;;;;;23.70;14.23;;;;;;;11.65;39.97;94385.53;2988818;39;20059;-73
2021/04/02 07:48:39;;;;;;;28.02;14.55;;;;;;;11.85;39.93;94391.16;2987001;39;20098;-72
2021/04/02 07:50:49;;;;;;;22.63;14.40;;;;;;;12.15;39.65;94385.22;2987486;39;20108;-73
2021/04/02 07:52:54;;;;;;;25.70;14.85;;;;;;;12.07;39.54;94386.13;2986648;39;20084;-72
2021/04/02 07:55:18;;;;;;;21.00;15.07;;;;;;;12.18;39.58;94383.06;2989462;39;20092;-72
2021/04/02 07:57:19;;;;;;;28.30;15.30;;;;;;;12.42;38.99;94381.25;2987843;39;20110;-73
2021/04/02 07:59:34;;;;;;;29.73;16.35;;;;;;;12.42;38.72;94389.13;2988940;39;20496;-73
2021/04/02 08:01:35;;;;;;;25.67;15.85;;;;;;;12.25;39.13;94386.63;2990144;39;20095;-74
2021/04/02 08:03:38;;;;;;;24.70;14.82;;;;;;;12.11;39.74;94383.94;2990041;39;20106;-73
2021/04/02 08:05:48;;;;;;;26.48;14.63;;;;;;;12.20;39.49;94383.72;2988597;39;20104;-72
2021/04/02 08:07:49;;;;;;;28.40;14.80;;;;;;;12.49;39.19;94379.53;2990318;39;20090;-74
2021/04/02 08:09:51;;;;;;;26.08;15.43;;;;;;;12.76;38.63;94378.13;2982534;39;20075;-72
2021/04/02 08:12:05;;;;;;;26.27;14.82;;;;;;;12.99;38.64;94367.53;2990136;39;20074;-74
2021/04/02 08:14:14;;;;;;;25.55;14.65;;;;;;;13.22;38.07;94372.66;2988175;39;20087;-74
2021/04/02 08:16:47;;;;;;;29.83;16.52;;;;;;;13.36;38.08;94378.94;2988854;39;20098;-71
2021/04/02 08:19:04;;;;;;;34.78;17.75;;;;;;;13.23;37.99;94368.25;2987239;39;20067;-73
2021/04/02 08:21:12;;;;;;;33.92;17.48;;;;;;;13.07;38.48;94364.78;2988290;39;20326;-73
2021/04/02 08:23:14;;;;;;;31.75;16.50;;;;;;;12.95;38.84;94366.25;2988430;39;20087;-75
2021/04/02 08:25:18;;;;;;;29.02;17.02;;;;;;;13.15;38.60;94358.63;2985630;39;20084;-72
2021/04/02 08:27:19;;;;;;;35.10;16.98;;;;;;;13.24;38.39;94365.41;2988111;39;20099;-74
2021/04/02 08:29:23;;;;;;;37.85;18.50;;;;;;;13.00;38.71;94374.41;2990524;39;20078;-73
2021/04/02 08:31:24;;;;;;;36.58;16.98;;;;;;;12.96;38.98;94367.88;2989950;39;20567;-72
2021/04/02 08:33:26;;;;;;;26.58;17.20;;;;;;;13.17;39.21;94361.06;2988999;39;20223;-73
2021/04/02 08:35:27;;;;;;;36.75;17.67;;;;;;;13.58;38.09;94356.13;2989675;39;20067;-73
2021/04/02 08:37:31;;;;;;;29.80;16.85;;;;;;;13.55;38.29;94358.31;2988913;39;20377;-73
2021/04/02 08:39:32;;;;;;;31.73;17.30;;;;;;;13.78;37.66;94351.06;2989021;39;20063;-73
2021/04/02 08:41:34;;;;;;;29.38;16.10;;;;;;;13.93;37.55;94364.16;2987865;39;20508;-72
2021/04/02 08:43:41;;;;;;;37.13;17.00;;;;;;;14.05;37.43;94362.69;2989492;39;20082;-74
2021/04/02 08:45:42;;;;;;;33.90;16.15;;;;;;;14.26;36.97;94366.28;2987774;39;20096;-73
2021/04/02 08:47:46;;;;;;;25.70;16.08;;;;;;;14.44;37.11;94361.38;2990245;39;20063;-72
2021/04/02 08:49:54;;;;;;;27.33;15.65;;;;;;;14.62;36.71;94360.94;2989544;39;20081;-73
2021/04/02 08:51:56;;;;;;;35.20;15.88;;;;;;;14.73;36.42;94357.78;2988195;39;20063;-73
2021/04/02 08:53:58;;;;;;;28.35;15.00;;;;;;;15.01;36.08;94356.91;2979875;39;20404;-73
2021/04/02 08:55:59;;;;;;;36.42;15.95;;;;;;;15.33;35.83;94354.63;2988798;39;20113;-71
2021/04/02 08:58:02;;;;;;;30.77;16.27;;;;;;;15.56;35.22;94343.75;2988733;39;20067;-73
2021/04/02 09:00:08;;;;;;;29.55;15.43;;;;;;;15.65;34.84;94347.03;2988119;39;20347;-74
2021/04/02 09:02:12;;;;;;;29.65;15.10;;;;;;;15.65;35.19;94341.75;2986309;39;20478;-73
2021/04/02 09:04:16;;;;;;;25.15;14.68;;;;;;;15.65;35.64;94339.94;2989728;39;20075;-73
2021/04/02 09:06:17;;;;;;;23.50;14.35;;;;;;;15.81;35.37;94341.44;2977619;39;20166;-75
2021/04/02 09:08:20;;;;;;;28.33;14.02;;;;;;;15.97;35.56;94343.69;2981680;39;20076;-72
2021/04/02 09:10:21;;;;;;;24.17;14.02;;;;;;;16.13;35.04;94339.03;2985360;39;20059;-74
2021/04/02 09:12:23;;;;;;;43.92;15.13;;;;;;;16.32;34.93;94340.88;2989698;39;20083;-73
2021/04/02 09:14:26;;;;;;;31.90;14.95;;;;;;;16.55;34.85;94344.94;2989712;39;20091;-75
2021/04/02 09:16:36;;;;;;;31.55;14.40;;;;;;;16.57;35.21;94346.38;2987866;39;20087;-74
2021/04/02 09:18:54;;;;;;;25.02;11.43;;;;;;;16.23;35.61;94344.72;2978389;39;20079;-73
2021/04/02 09:20:57;;;;;;;18.83;8.20;;;;;;;16.37;36.08;94338.44;2987750;39;20079;-88
2021/04/02 09:22:59;;;;;;;15.52;6.88;;;;;;;16.43;36.13;94331.50;2994506;39;20411;-86
2021/04/02 09:25:00;;;;;;;13.88;5.45;;;;;;;16.15;36.54;94353.69;2987283;39;20083;-74
2021/04/02 09:27:10;;;;;;;14.45;5.32;;;;;;;16.16;36.48;94346.56;2989239;39;20104;-74
2021/04/02 09:29:13;;;;;;;21.30;5.40;;;;;;;16.08;36.80;94346.75;2988000;39;20059;-73
2021/04/02 09:31:17;;;;;;;11.13;5.50;;;;;;;16.10;36.80;94350.81;2989642;39;20188;-74
2021/04/02 09:33:19;;;;;;;18.27;5.97;;;;;;;16.07;37.01;94355.72;2987424;39;20071;-74
2021/04/02 09:35:21;;;;;;;10.48;4.95;;;;;;;16.16;36.91;94350.00;2985481;39;20100;-74